Terminal Aerodrome Forecast
Issued by NWS

Home | Current Version | Previous Version | Graphics & Text | Print | Product List | Glossary On
Versions: 1 2 3 4 5 6 7 8 9 10 11 12 13 14 15 16 17 18 19 20 21 22 23 24 25 26 27 28 29 30 31 32 33 34 35 36 37 38 39 40 41 42 43 44 45 46 47 48 49 50
277
FTUS43 KLOT 290521 CCA
TAFGYY
TAF COR
KGYY 290521Z 2906/3006 06006KT 3/4SM BR OVC002
      TEMPO 2910/2914 1/2SM FG
     FM291500 07013KT P6SM FEW005 BKN120
     FM292100 07014G22KT P6SM SCT060 BKN100
     FM300100 07010KT P6SM SCT030 OVC060=

USA.gov is the U.S. government's official web portal to all federal, state and local government web resources and services.